Overview Statistics Trail Chart Weather Telemetry Raw packets
 

This is the latest recevied weather packets stored in our database for station/object K9MWD. If no packets are shown the sender has not sent any weather packets the latest 10 day(s).

<< 102 103 104 105 106 107 108 >>
Time Temp. Humidity Pressure Rain* Wind** Luminosity Snow
1787866252 37.78° C 32% 1013 hPa 0 mm - 547 W/m² -
1787865947 37.78° C 33% 1013.1 hPa 0 mm - 313 W/m² -
1787865643 37.78° C 35% 1013.2 hPa 0 mm - 439 W/m² -
1787865343 37.78° C 36% 1013.4 hPa 0 mm - 454 W/m² -
1787865038 38.33° C 34% 1013.4 hPa 0 mm - 416 W/m² -
1787864734 37.22° C 34% 1013.1 hPa 0 mm - 553 W/m² -
1787864434 37.22° C 36% 1013.5 hPa 0 mm - 290 W/m² -
1787864132 37.22° C 35% 1013.4 hPa 0 mm - 245 W/m² -
1787863832 36.67° C 34% 1013.5 hPa 0 mm - 337 W/m² -
1787863530 37.78° C 35% 1013.7 hPa 0 mm - 397 W/m² -
1787863226 37.78° C 35% 1013.5 hPa 0 mm - 651 W/m² -
1787862922 38.33° C 35% 1013.5 hPa 0 mm - 733 W/m² -
1787862616 38.33° C 35% 1013.6 hPa 0 mm - 735 W/m² -
1787862312 37.78° C 37% 1013.7 hPa 0 mm - 737 W/m² -
1787862007 37.78° C 36% 1013.7 hPa 0 mm - 761 W/m² -
1787861701 37.78° C 34% 1013.8 hPa 0 mm - 760 W/m² -
1787861399 37.78° C 37% 1013.8 hPa 0 mm - 770 W/m² -
1787861094 37.78° C 39% 1013.9 hPa 0 mm - 780 W/m² -
1787860792 37.22° C 39% 1014 hPa 0 mm - 785 W/m² -
1787860488 37.22° C 40% 1014.2 hPa 0 mm - 796 W/m² -
1787860188 37.22° C 40% 1014.1 hPa 0 mm - 807 W/m² -
1787859883 37.22° C 41% 1014.3 hPa 0 mm - 802 W/m² -
1787859573 36.67° C 41% 1014.4 hPa 0 mm - 820 W/m² -
1787859273 37.22° C 42% 1014.4 hPa 0 mm - 816 W/m² -
1787858970 37.22° C 42% 1014.6 hPa 0 mm - 830 W/m² -

* Rain latest hour (hover to see other rain measurements)
** Current wind speed in m/s (hover to see current wind gust speed)